createdAt,value
2023-08-08T00:00:44.418Z,86.57
2023-08-08T00:01:44.377Z,86.53
2023-08-08T00:02:44.488Z,86.74
2023-08-08T00:03:44.412Z,86.68
2023-08-08T00:04:45.394Z,86.27
2023-08-08T00:05:44.328Z,86.47
2023-08-08T00:06:44.322Z,86.47
2023-08-08T00:07:44.319Z,86.16
2023-08-08T00:08:44.304Z,86.27
2023-08-08T00:09:44.318Z,86.77
2023-08-08T00:10:44.308Z,86.88
2023-08-08T00:11:44.273Z,86.77
2023-08-08T00:12:44.258Z,86.82
2023-08-08T00:13:45.264Z,86.92
2023-08-08T00:14:44.262Z,87.43
2023-08-08T00:15:44.299Z,87.12
2023-08-08T00:16:44.251Z,87.84
2023-08-08T00:17:44.263Z,87.98
2023-08-08T00:18:44.213Z,88.69
2023-08-08T00:19:44.223Z,88.39
2023-08-08T00:20:44.194Z,88.08
2023-08-08T00:21:44.195Z,88.69
2023-08-08T00:22:44.175Z,88.59
2023-08-08T00:23:44.159Z,88.59
2023-08-08T00:24:44.173Z,89.10
2023-08-08T00:25:44.151Z,89.34
2023-08-08T00:26:44.177Z,89.45
2023-08-08T00:27:44.131Z,89.34
2023-08-08T00:28:44.118Z,89.34
2023-08-08T00:29:44.117Z,89.25
2023-08-08T00:30:44.269Z,89.86
2023-08-08T00:31:44.091Z,89.96
2023-08-08T00:32:44.157Z,89.96
2023-08-08T00:33:44.137Z,89.86
2023-08-08T00:34:44.070Z,90.26
2023-08-08T00:35:44.055Z,89.96
2023-08-08T00:36:44.041Z,90.26
2023-08-08T00:37:44.048Z,89.75
2023-08-08T00:38:44.053Z,89.96
2023-08-08T00:39:44.020Z,89.86
2023-08-08T00:40:44.015Z,89.79
2023-08-08T00:41:44.000Z,90.06
2023-08-08T00:42:44.030Z,90.06
2023-08-08T00:43:43.977Z,89.71
2023-08-08T00:44:43.971Z,89.20
2023-08-08T00:45:43.986Z,89.51
2023-08-08T00:46:44.023Z,89.20
2023-08-08T00:47:44.000Z,89.14
2023-08-08T00:48:43.929Z,89.51
2023-08-08T00:49:43.953Z,89.14
2023-08-08T00:50:43.943Z,89.75
2023-08-08T00:51:43.908Z,89.61
2023-08-08T00:52:43.919Z,89.75
2023-08-08T00:53:43.878Z,89.51
2023-08-08T00:54:43.884Z,89.96
2023-08-08T00:55:43.851Z,89.65
2023-08-08T00:56:43.859Z,89.96
2023-08-08T00:57:43.846Z,89.75
2023-08-08T00:58:43.831Z,89.51
2023-08-08T00:59:43.851Z,89.20
2023-08-08T01:00:43.843Z,89.40
2023-08-08T01:01:43.822Z,89.51
2023-08-08T01:02:43.921Z,89.25
2023-08-08T01:03:43.771Z,89.20
2023-08-08T01:04:43.756Z,89.30
2023-08-08T01:05:43.768Z,89.40
2023-08-08T01:06:43.765Z,89.71
2023-08-08T01:07:44.732Z,89.20
2023-08-08T01:08:43.758Z,89.40
2023-08-08T01:09:43.715Z,89.20
2023-08-08T01:10:43.743Z,89.61
2023-08-08T01:11:43.697Z,89.61
2023-08-08T01:12:43.676Z,89.30
2023-08-08T01:13:43.665Z,89.10
2023-08-08T01:14:43.662Z,89.45
2023-08-08T01:15:43.729Z,89.30
2023-08-08T01:16:43.726Z,89.65
2023-08-08T01:17:43.735Z,90.12
2023-08-08T01:18:43.629Z,89.92
2023-08-08T01:19:43.614Z,89.00
2023-08-08T01:20:43.645Z,89.81
2023-08-08T01:21:43.608Z,89.81
2023-08-08T01:22:43.588Z,89.20
2023-08-08T01:23:43.619Z,89.20
2023-08-08T01:24:43.580Z,89.20
2023-08-08T01:25:43.588Z,90.01
2023-08-08T01:26:43.544Z,89.40
2023-08-08T01:27:43.537Z,89.30
2023-08-08T01:28:43.536Z,89.40
2023-08-08T01:29:43.538Z,89.71
2023-08-08T01:30:43.641Z,89.96
2023-08-08T01:31:43.516Z,90.06
2023-08-08T01:32:43.584Z,90.06
2023-08-08T01:33:43.479Z,89.96
2023-08-08T01:34:43.514Z,90.47
2023-08-08T01:35:43.478Z,90.36
2023-08-08T01:36:43.451Z,90.16
2023-08-08T01:37:43.440Z,90.26
2023-08-08T01:38:43.428Z,90.47
2023-08-08T01:39:43.480Z,90.47
2023-08-08T01:40:43.436Z,90.22
2023-08-08T01:41:43.426Z,90.01
2023-08-08T01:42:43.418Z,90.26
2023-08-08T01:43:43.388Z,90.36
2023-08-08T01:44:43.380Z,90.88
2023-08-08T01:45:43.385Z,90.67
2023-08-08T01:46:43.379Z,90.36
2023-08-08T01:47:43.427Z,90.67
2023-08-08T01:48:43.353Z,90.67
2023-08-08T01:49:43.323Z,90.98
2023-08-08T01:50:43.333Z,90.98
2023-08-08T01:51:43.338Z,91.18
2023-08-08T01:52:43.299Z,91.08
2023-08-08T01:53:43.283Z,91.18
2023-08-08T01:54:43.295Z,91.18
2023-08-08T01:55:44.274Z,91.08
2023-08-08T01:56:43.297Z,91.08
2023-08-08T01:57:43.247Z,90.83
2023-08-08T01:58:43.303Z,90.57
2023-08-08T01:59:43.238Z,90.83
2023-08-08T02:00:43.222Z,90.77
2023-08-08T02:01:43.219Z,90.94
2023-08-08T02:02:43.343Z,90.83
2023-08-08T02:03:43.293Z,90.88
2023-08-08T02:04:43.173Z,90.83
2023-08-08T02:05:43.169Z,90.63
2023-08-08T02:06:43.156Z,90.83
2023-08-08T02:07:43.191Z,90.32
2023-08-08T02:09:15.083Z,90.42
2023-08-08T02:09:43.127Z,89.92
2023-08-08T02:10:43.143Z,90.18
2023-08-08T02:11:43.122Z,89.87
2023-08-08T02:12:43.122Z,89.87
2023-08-08T02:13:43.098Z,89.87
2023-08-08T02:14:43.090Z,89.77
2023-08-08T02:15:43.077Z,88.96
2023-08-08T02:16:43.057Z,89.57
2023-08-08T02:17:43.082Z,89.97
2023-08-08T02:18:43.040Z,89.57
2023-08-08T02:19:43.029Z,89.83
2023-08-08T02:20:43.033Z,89.42
2023-08-08T02:21:43.031Z,89.12
2023-08-08T02:22:43.001Z,89.12
2023-08-08T02:23:42.991Z,89.42
2023-08-08T02:24:42.975Z,88.92
2023-08-08T02:25:43.003Z,88.81
2023-08-08T02:26:42.998Z,89.12
2023-08-08T02:27:42.953Z,88.61
2023-08-08T02:28:42.974Z,89.12
2023-08-08T02:29:42.933Z,88.61
2023-08-08T02:30:42.917Z,88.71
2023-08-08T02:31:42.939Z,89.01
2023-08-08T02:32:42.952Z,88.92
2023-08-08T02:33:42.910Z,89.22
2023-08-08T02:34:42.959Z,89.36
2023-08-08T02:35:42.872Z,89.36
2023-08-08T02:36:42.870Z,89.94
2023-08-08T02:37:42.874Z,89.87
2023-08-08T02:38:42.989Z,89.63
2023-08-08T02:39:42.836Z,89.57
2023-08-08T02:40:42.838Z,89.83
2023-08-08T02:41:42.846Z,89.57
2023-08-08T02:42:42.794Z,89.42
2023-08-08T02:43:42.809Z,89.57
2023-08-08T02:44:42.790Z,89.83
2023-08-08T02:45:42.887Z,89.83
2023-08-08T02:46:42.822Z,89.47
2023-08-08T02:47:42.796Z,89.77
2023-08-08T02:48:42.776Z,89.67
2023-08-08T02:49:42.737Z,90.08
2023-08-08T02:50:42.727Z,89.87
2023-08-08T02:51:42.750Z,89.87
2023-08-08T02:52:42.738Z,90.18
2023-08-08T02:53:42.687Z,90.28
2023-08-08T02:54:42.690Z,89.57
2023-08-08T02:55:42.699Z,89.87
2023-08-08T02:56:42.698Z,89.87
2023-08-08T02:57:42.651Z,89.67
2023-08-08T02:58:42.648Z,89.26
2023-08-08T02:59:42.624Z,89.01
2023-08-08T03:00:42.626Z,89.42
2023-08-08T03:01:43.713Z,89.42
2023-08-08T03:02:42.675Z,89.12
2023-08-08T03:03:42.617Z,89.12
2023-08-08T03:04:42.585Z,89.53
2023-08-08T03:05:42.575Z,89.63
2023-08-08T03:06:42.588Z,89.94
2023-08-08T03:07:42.584Z,89.73
2023-08-08T03:08:42.553Z,89.63
2023-08-08T03:09:42.557Z,89.32
2023-08-08T03:10:42.608Z,89.94
2023-08-08T03:11:42.584Z,89.48
2023-08-08T03:12:42.507Z,88.51
2023-08-08T03:13:42.499Z,89.12
2023-08-08T03:14:42.494Z,89.22
2023-08-08T03:15:42.604Z,88.92
2023-08-08T03:16:42.488Z,88.77
2023-08-08T03:17:42.475Z,88.40
2023-08-08T03:18:42.448Z,88.46
2023-08-08T03:19:42.491Z,88.87
2023-08-08T03:20:42.437Z,88.26
2023-08-08T03:21:42.464Z,88.67
2023-08-08T03:22:42.410Z,88.46
2023-08-08T03:23:42.411Z,88.57
2023-08-08T03:24:42.401Z,88.46
2023-08-08T03:25:42.374Z,88.57
2023-08-08T03:26:42.443Z,88.87
2023-08-08T03:27:42.386Z,88.57
2023-08-08T03:28:42.351Z,88.77
2023-08-08T03:29:42.350Z,88.67
2023-08-08T03:30:42.328Z,88.57
2023-08-08T03:31:42.345Z,88.77
2023-08-08T03:32:42.438Z,89.28
2023-08-08T03:33:42.398Z,88.87
2023-08-08T03:34:42.290Z,89.07
2023-08-08T03:35:42.301Z,89.69
2023-08-08T03:36:43.421Z,89.94
2023-08-08T03:37:42.309Z,90.55
2023-08-08T03:38:42.260Z,90.75
2023-08-08T03:39:42.300Z,90.24
2023-08-08T03:40:42.236Z,90.44
2023-08-08T03:41:42.243Z,90.40
2023-08-08T03:42:42.250Z,90.34
2023-08-08T03:43:42.218Z,90.24
2023-08-08T03:44:42.244Z,90.34
2023-08-08T03:45:42.197Z,90.30
2023-08-08T03:46:42.230Z,90.85
2023-08-08T03:47:42.253Z,91.05
2023-08-08T03:48:42.186Z,90.95
2023-08-08T03:49:42.176Z,91.26
2023-08-08T03:50:42.187Z,91.36
2023-08-08T03:51:42.169Z,91.16
2023-08-08T03:52:42.137Z,91.30
2023-08-08T03:53:42.171Z,91.46
2023-08-08T03:54:42.177Z,91.16
2023-08-08T03:55:42.089Z,91.36
2023-08-08T03:56:42.076Z,91.46
2023-08-08T03:57:42.086Z,91.16
2023-08-08T03:58:42.107Z,91.26
2023-08-08T03:59:42.085Z,91.26
2023-08-08T04:00:42.109Z,91.40
2023-08-08T04:01:42.055Z,91.46
2023-08-08T04:02:42.074Z,91.26
2023-08-08T04:03:42.072Z,91.05
2023-08-08T04:04:42.025Z,90.95
2023-08-08T04:05:41.997Z,90.75
2023-08-08T04:06:41.987Z,90.85
2023-08-08T04:07:41.986Z,90.50
2023-08-08T04:08:41.986Z,90.75
2023-08-08T04:09:41.979Z,90.50
2023-08-08T04:10:41.942Z,90.64
2023-08-08T04:11:41.947Z,90.60
2023-08-08T04:12:41.923Z,90.55
2023-08-08T04:13:41.955Z,90.40
2023-08-08T04:14:41.961Z,90.20
2023-08-08T04:15:41.897Z,90.20
2023-08-08T04:16:41.957Z,90.20
2023-08-08T04:17:41.949Z,89.59
2023-08-08T04:18:41.867Z,89.69
2023-08-08T04:19:41.885Z,89.89
2023-08-08T04:20:41.878Z,89.89
2023-08-08T04:21:41.840Z,89.89
2023-08-08T04:22:41.836Z,89.38
2023-08-08T04:23:41.824Z,89.79
2023-08-08T04:24:41.850Z,90.09
2023-08-08T04:25:41.821Z,89.48
2023-08-08T04:26:41.808Z,88.87
2023-08-08T04:27:41.781Z,88.98
2023-08-08T04:28:41.828Z,89.18
2023-08-08T04:29:41.783Z,89.03
2023-08-08T04:30:41.778Z,89.03
2023-08-08T04:31:41.743Z,88.73
2023-08-08T04:32:41.813Z,88.93
2023-08-08T04:33:41.799Z,88.83
2023-08-08T04:34:41.731Z,88.83
2023-08-08T04:35:41.709Z,88.63
2023-08-08T04:36:41.696Z,88.42
2023-08-08T04:37:41.701Z,88.32
2023-08-08T04:38:41.698Z,88.42
2023-08-08T04:39:41.766Z,88.02
2023-08-08T04:40:41.681Z,88.02
2023-08-08T04:41:41.661Z,87.26
2023-08-08T04:42:41.641Z,87.16
2023-08-08T04:43:41.657Z,87.10
2023-08-08T04:44:41.644Z,87.77
2023-08-08T04:45:41.614Z,87.26
2023-08-08T04:46:41.626Z,87.06
2023-08-08T04:47:41.636Z,87.47
2023-08-08T04:48:41.701Z,87.06
2023-08-08T04:49:41.597Z,87.26
2023-08-08T04:50:41.595Z,86.86
2023-08-08T04:51:41.554Z,86.55
2023-08-08T04:52:41.543Z,86.31
2023-08-08T04:53:41.551Z,86.00
2023-08-08T04:54:41.569Z,86.10
2023-08-08T04:55:41.517Z,86.51
2023-08-08T04:56:41.532Z,86.51
2023-08-08T04:57:41.499Z,86.16
2023-08-08T04:58:41.467Z,86.27
2023-08-08T04:59:41.513Z,84.95
2023-08-08T05:00:41.533Z,84.95
2023-08-08T05:01:41.484Z,85.15
2023-08-08T05:02:41.518Z,84.34
2023-08-08T05:03:41.587Z,83.93
2023-08-08T05:04:41.433Z,84.13
2023-08-08T05:05:41.443Z,84.84
2023-08-08T05:06:41.405Z,84.95
2023-08-08T05:07:41.384Z,85.15
2023-08-08T05:08:41.463Z,85.25
2023-08-08T05:09:41.394Z,85.15
2023-08-08T05:10:41.361Z,85.25
2023-08-08T05:11:41.381Z,85.05
2023-08-08T05:12:41.346Z,85.31
2023-08-08T05:13:41.341Z,84.60
2023-08-08T05:14:41.332Z,83.95
2023-08-08T05:15:41.339Z,83.10
2023-08-08T05:16:41.349Z,82.66
2023-08-08T05:17:41.294Z,80.44
2023-08-08T05:18:41.386Z,77.39
2023-08-08T05:19:41.299Z,73.22
2023-08-08T05:20:41.265Z,71.73
2023-08-08T05:21:41.303Z,72.17
2023-08-08T05:22:41.251Z,69.38
2023-08-08T05:23:41.254Z,68.45
2023-08-08T05:24:41.250Z,67.04
2023-08-08T05:25:41.228Z,65.67
2023-08-08T05:26:41.234Z,65.27
2023-08-08T05:27:41.255Z,64.58
2023-08-08T05:28:41.209Z,62.64
2023-08-08T05:29:41.179Z,61.38
2023-08-08T05:30:41.179Z,60.15
2023-08-08T05:31:41.198Z,59.82
2023-08-08T05:32:41.235Z,59.86
2023-08-08T05:33:41.157Z,57.34
2023-08-08T05:34:41.229Z,56.98
2023-08-08T05:35:41.133Z,57.48
2023-08-08T05:36:41.119Z,55.76
2023-08-08T05:37:41.124Z,55.58
2023-08-08T05:38:41.088Z,56.79
2023-08-08T05:39:41.085Z,56.26
2023-08-08T05:40:41.069Z,56.24
2023-08-08T05:41:41.057Z,57.64
2023-08-08T05:42:41.115Z,57.19
2023-08-08T05:43:41.043Z,58.12
2023-08-08T05:44:41.038Z,58.09
2023-08-08T05:45:41.014Z,56.77
2023-08-08T05:46:42.042Z,57.46
2023-08-08T05:47:41.054Z,57.07
2023-08-08T05:48:41.005Z,58.19
2023-08-08T05:49:40.994Z,57.19
2023-08-08T05:50:41.084Z,56.87
2023-08-08T05:51:41.003Z,57.14
2023-08-08T05:52:40.963Z,56.21
2023-08-08T05:53:40.946Z,57.31
2023-08-08T05:54:40.974Z,55.69
2023-08-08T05:55:40.919Z,56.74
2023-08-08T05:56:40.954Z,61.70
2023-08-08T05:57:40.909Z,63.62
2023-08-08T05:58:40.894Z,66.71
2023-08-08T05:59:40.886Z,68.21
2023-08-08T06:00:40.905Z,69.45
2023-08-08T06:01:40.900Z,70.29
2023-08-08T06:02:40.889Z,70.79
2023-08-08T06:03:40.914Z,70.36
2023-08-08T06:04:40.876Z,69.56
2023-08-08T06:05:40.830Z,67.28
2023-08-08T06:06:40.834Z,65.13
2023-08-08T06:07:40.826Z,64.14
2023-08-08T06:08:40.813Z,62.94
2023-08-08T06:09:40.807Z,60.08
2023-08-08T06:10:40.807Z,60.12
2023-08-08T06:11:40.769Z,60.51
2023-08-08T06:12:40.765Z,62.31
2023-08-08T06:13:42.271Z,61.84
2023-08-08T06:14:40.742Z,59.55
2023-08-08T06:15:40.772Z,59.36
2023-08-08T06:16:40.755Z,60.32
2023-08-08T06:17:40.739Z,61.41
2023-08-08T06:18:40.714Z,62.57
2023-08-08T06:19:40.699Z,64.34
2023-08-08T06:20:40.708Z,65.64
2023-08-08T06:21:40.699Z,66.87
2023-08-08T06:22:40.677Z,67.41
2023-08-08T06:23:40.661Z,69.25
2023-08-08T06:24:40.651Z,69.99
2023-08-08T06:25:40.638Z,70.42
2023-08-08T06:26:40.663Z,70.02
2023-08-08T06:27:40.627Z,71.47
2023-08-08T06:28:40.639Z,72.00
2023-08-08T06:29:40.608Z,72.11
2023-08-08T06:30:40.598Z,72.00
2023-08-08T06:31:40.671Z,71.94
2023-08-08T06:32:40.624Z,72.41
2023-08-08T06:33:40.566Z,72.34
2023-08-08T06:34:40.567Z,72.44
2023-08-08T06:35:40.546Z,71.94
2023-08-08T06:36:40.570Z,72.64
2023-08-08T06:37:40.536Z,72.58
2023-08-08T06:38:40.604Z,73.35
2023-08-08T06:39:40.521Z,72.98
2023-08-08T06:40:40.502Z,73.79
2023-08-08T06:41:40.511Z,73.79
2023-08-08T06:42:40.499Z,73.89
2023-08-08T06:43:40.514Z,71.87
2023-08-08T06:44:40.467Z,71.87
2023-08-08T06:45:40.480Z,71.40
2023-08-08T06:46:40.470Z,71.70
2023-08-08T06:47:40.458Z,71.30
2023-08-08T06:48:40.428Z,72.00
2023-08-08T06:49:40.409Z,72.98
2023-08-08T06:50:40.408Z,70.29
2023-08-08T06:51:40.412Z,71.60
2023-08-08T06:52:40.401Z,70.73
2023-08-08T06:53:40.384Z,71.53
2023-08-08T06:54:40.479Z,71.53
2023-08-08T06:55:40.368Z,71.94
2023-08-08T06:56:40.364Z,71.03
2023-08-08T06:57:40.332Z,71.53
2023-08-08T06:58:40.350Z,71.53
2023-08-08T06:59:40.350Z,71.33
2023-08-08T07:00:40.381Z,71.13
2023-08-08T07:01:40.330Z,71.23
2023-08-08T07:02:40.346Z,71.13
2023-08-08T07:03:40.336Z,70.56
2023-08-08T07:04:40.284Z,71.67
2023-08-08T07:05:40.251Z,71.64
2023-08-08T07:06:40.254Z,71.13
2023-08-08T07:07:40.247Z,71.84
2023-08-08T07:08:40.247Z,71.13
2023-08-08T07:09:40.229Z,71.53
2023-08-08T07:10:40.323Z,71.84
2023-08-08T07:11:40.243Z,71.47
2023-08-08T07:12:40.191Z,73.43
2023-08-08T07:13:40.168Z,73.52
2023-08-08T07:14:40.168Z,72.11
2023-08-08T07:15:40.204Z,73.52
2023-08-08T07:16:40.151Z,73.02
2023-08-08T07:17:40.216Z,73.83
2023-08-08T07:18:40.164Z,73.22
2023-08-08T07:19:40.139Z,73.72
2023-08-08T07:20:40.108Z,73.32
2023-08-08T07:21:40.124Z,73.63
2023-08-08T07:22:40.122Z,73.52
2023-08-08T07:23:40.083Z,73.32
2023-08-08T07:24:40.145Z,73.72
2023-08-08T07:25:40.102Z,72.92
2023-08-08T07:26:40.059Z,73.66
2023-08-08T07:27:40.041Z,73.15
2023-08-08T07:28:40.066Z,72.75
2023-08-08T07:29:40.122Z,73.25
2023-08-08T07:30:40.024Z,73.86
2023-08-08T07:31:40.000Z,73.96
2023-08-08T07:32:40.024Z,73.86
2023-08-08T07:33:39.987Z,74.07
2023-08-08T07:34:40.007Z,74.16
2023-08-08T07:35:39.998Z,73.76
2023-08-08T07:36:39.982Z,73.76
2023-08-08T07:37:39.963Z,73.22
2023-08-08T07:38:39.937Z,73.52
2023-08-08T07:39:39.920Z,74.16
2023-08-08T07:40:39.966Z,72.11
2023-08-08T07:41:39.948Z,73.28
2023-08-08T07:42:39.929Z,72.08
2023-08-08T07:43:39.912Z,73.46
2023-08-08T07:44:39.862Z,72.44
2023-08-08T07:45:39.908Z,72.04
2023-08-08T07:46:39.911Z,71.64
2023-08-08T07:47:39.904Z,71.91
2023-08-08T07:48:39.831Z,71.91
2023-08-08T07:49:39.817Z,72.17
2023-08-08T07:50:39.816Z,71.26
2023-08-08T07:51:39.824Z,70.39
2023-08-08T07:52:39.830Z,70.46
2023-08-08T07:53:39.798Z,70.46
2023-08-08T07:54:39.778Z,70.86
2023-08-08T07:55:39.789Z,70.93
2023-08-08T07:56:39.833Z,69.72
2023-08-08T07:57:39.753Z,70.22
2023-08-08T07:58:39.812Z,70.53
2023-08-08T07:59:39.757Z,69.82
2023-08-08T08:00:39.749Z,70.26
2023-08-08T08:01:39.789Z,68.91
2023-08-08T08:02:39.788Z,70.29
2023-08-08T08:03:39.816Z,69.38
2023-08-08T08:04:39.670Z,70.49
2023-08-08T08:05:39.681Z,69.89
2023-08-08T08:06:39.669Z,68.37
2023-08-08T08:07:39.661Z,70.46
2023-08-08T08:08:39.641Z,69.28
2023-08-08T08:10:11.596Z,69.28
2023-08-08T08:10:39.624Z,69.55
2023-08-08T08:11:39.624Z,68.95
2023-08-08T08:12:39.622Z,68.31
2023-08-08T08:13:39.614Z,68.35
2023-08-08T08:14:40.601Z,67.44
2023-08-08T08:15:39.591Z,66.00
2023-08-08T08:16:39.653Z,66.74
2023-08-08T08:17:39.840Z,66.74
2023-08-08T08:18:39.563Z,66.97
2023-08-08T08:19:39.546Z,65.66
2023-08-08T08:20:39.557Z,67.27
2023-08-08T08:21:39.551Z,66.74
2023-08-08T08:22:39.559Z,65.42
2023-08-08T08:23:39.511Z,66.71
2023-08-08T08:24:39.906Z,65.73
2023-08-08T08:25:39.518Z,65.62
2023-08-08T08:26:39.543Z,65.93
2023-08-08T08:27:39.477Z,66.63
2023-08-08T08:28:39.477Z,67.24
2023-08-08T08:29:39.469Z,66.06
2023-08-08T08:30:39.565Z,67.14
2023-08-08T08:31:39.434Z,65.56
2023-08-08T08:32:39.468Z,64.10
2023-08-08T08:33:39.421Z,64.24
2023-08-08T08:34:39.406Z,62.51
2023-08-08T08:35:39.435Z,60.62
2023-08-08T08:36:39.412Z,57.14
2023-08-08T08:37:39.409Z,58.01
2023-08-08T08:38:39.380Z,57.09
2023-08-08T08:39:39.421Z,56.53
2023-08-08T08:40:39.343Z,54.91
2023-08-08T08:41:39.391Z,53.96
2023-08-08T08:42:39.327Z,54.41
2023-08-08T08:43:39.314Z,52.42
2023-08-08T08:44:39.309Z,52.86
2023-08-08T08:45:39.340Z,54.58
2023-08-08T08:46:39.340Z,55.68
2023-08-08T08:47:39.302Z,52.74
2023-08-08T08:48:39.273Z,52.51
2023-08-08T08:49:39.260Z,54.28
2023-08-08T08:50:39.277Z,52.74
2023-08-08T08:51:39.255Z,53.22
2023-08-08T08:52:39.245Z,54.61
2023-08-08T08:53:39.232Z,55.48
2023-08-08T08:54:39.219Z,54.46
2023-08-08T08:55:39.219Z,52.86
2023-08-08T08:56:39.207Z,53.39
2023-08-08T08:57:39.183Z,54.16
2023-08-08T08:58:40.198Z,54.69
2023-08-08T08:59:39.169Z,54.99
2023-08-08T09:00:39.188Z,57.15
2023-08-08T09:01:39.151Z,56.40
2023-08-08T09:02:39.201Z,54.88
2023-08-08T09:03:39.230Z,53.41
2023-08-08T09:04:39.121Z,54.71
2023-08-08T09:05:39.113Z,54.66
2023-08-08T09:06:39.108Z,54.04
2023-08-08T09:07:39.139Z,55.88
2023-08-08T09:08:39.076Z,56.54
2023-08-08T09:09:39.150Z,56.96
2023-08-08T09:10:39.071Z,58.42
2023-08-08T09:11:39.065Z,59.05
2023-08-08T09:12:39.048Z,60.48
2023-08-08T09:13:39.038Z,58.68
2023-08-08T09:14:39.079Z,60.38
2023-08-08T09:15:39.038Z,60.68
2023-08-08T09:16:39.032Z,59.95
2023-08-08T09:17:48.136Z,58.95
2023-08-08T09:18:40.086Z,58.59
2023-08-08T09:19:39.013Z,58.19
2023-08-08T09:20:38.958Z,59.14
2023-08-08T09:21:38.965Z,58.14
2023-08-08T09:22:38.963Z,58.97
2023-08-08T09:23:38.968Z,57.19
2023-08-08T09:24:38.951Z,57.19
2023-08-08T09:25:38.977Z,57.29
2023-08-08T09:26:38.902Z,56.96
2023-08-08T09:27:38.912Z,55.57
2023-08-08T09:28:38.899Z,56.20
2023-08-08T09:29:38.920Z,57.17
2023-08-08T09:30:38.907Z,55.14
2023-08-08T09:31:38.873Z,55.14
2023-08-08T09:32:38.950Z,56.46
2023-08-08T09:33:38.860Z,57.07
2023-08-08T09:34:38.859Z,56.04
2023-08-08T09:35:38.833Z,56.54
2023-08-08T09:36:38.812Z,56.67
2023-08-08T09:37:38.862Z,56.07
2023-08-08T09:38:38.796Z,57.52
2023-08-08T09:39:38.792Z,57.75
2023-08-08T09:40:38.779Z,57.12
2023-08-08T09:41:38.772Z,57.29
2023-08-08T09:42:38.782Z,56.77
2023-08-08T09:43:38.762Z,57.67
2023-08-08T09:44:38.745Z,57.04
2023-08-08T09:45:38.744Z,58.44
2023-08-08T09:46:38.791Z,57.93
2023-08-08T09:47:38.812Z,56.41
2023-08-08T09:48:38.729Z,56.41
2023-08-08T09:49:38.710Z,55.71
2023-08-08T09:50:38.693Z,56.46
2023-08-08T09:51:38.692Z,55.77
2023-08-08T09:52:38.769Z,56.32
2023-08-08T09:53:38.705Z,56.52
2023-08-08T09:54:38.656Z,58.09
2023-08-08T09:55:38.662Z,58.39
2023-08-08T09:56:38.698Z,56.52
2023-08-08T09:57:38.631Z,57.65
2023-08-08T09:58:38.621Z,57.95
2023-08-08T09:59:38.647Z,59.20
2023-08-08T10:00:38.650Z,59.68
2023-08-08T10:01:38.614Z,58.48
2023-08-08T10:02:38.685Z,58.70
2023-08-08T10:03:38.606Z,57.90
2023-08-08T10:04:38.608Z,59.33
2023-08-08T10:05:38.596Z,60.21
2023-08-08T10:06:38.659Z,58.70
2023-08-08T10:07:38.532Z,59.20
2023-08-08T10:08:38.529Z,58.00
2023-08-08T10:09:38.551Z,57.90
2023-08-08T10:10:38.601Z,58.43
2023-08-08T10:11:38.504Z,58.36
2023-08-08T10:12:38.500Z,58.49
2023-08-08T10:13:38.506Z,60.22
2023-08-08T10:14:38.473Z,60.12
2023-08-08T10:15:38.473Z,60.32
2023-08-08T10:16:38.453Z,61.86
2023-08-08T10:17:38.502Z,61.05
2023-08-08T10:18:38.406Z,61.46
2023-08-08T10:19:38.410Z,61.05
2023-08-08T10:20:38.441Z,62.43
2023-08-08T10:21:38.399Z,61.02
2023-08-08T10:22:38.462Z,60.62
2023-08-08T10:23:38.388Z,59.82
2023-08-08T10:24:38.416Z,61.05
2023-08-08T10:25:38.385Z,61.35
2023-08-08T10:26:38.342Z,60.96
2023-08-08T10:27:38.341Z,61.25
2023-08-08T10:28:38.345Z,61.15
2023-08-08T10:29:38.324Z,60.85
2023-08-08T10:30:38.337Z,61.13
2023-08-08T10:31:38.317Z,61.43
2023-08-08T10:32:38.376Z,62.23
2023-08-08T10:33:38.313Z,62.33
2023-08-08T10:34:38.280Z,61.19
2023-08-08T10:35:38.240Z,61.10
2023-08-08T10:36:38.248Z,60.89
2023-08-08T10:37:38.261Z,59.99
2023-08-08T10:38:38.242Z,59.99
2023-08-08T10:39:38.220Z,60.86
2023-08-08T10:40:38.208Z,59.00
2023-08-08T10:41:38.215Z,59.61
2023-08-08T10:42:38.193Z,58.11
2023-08-08T10:43:38.213Z,57.10
2023-08-08T10:44:38.168Z,56.60
2023-08-08T10:45:38.175Z,56.90
2023-08-08T10:46:38.196Z,56.02
2023-08-08T10:47:38.188Z,57.00
2023-08-08T10:48:38.137Z,56.43
2023-08-08T10:49:38.149Z,55.45
2023-08-08T10:50:38.118Z,57.39
2023-08-08T10:51:38.106Z,57.48
2023-08-08T10:52:38.112Z,58.26
2023-08-08T10:53:38.078Z,57.86
2023-08-08T10:54:38.115Z,57.08
2023-08-08T10:55:38.096Z,57.01
2023-08-08T10:56:38.066Z,58.01
2023-08-08T10:57:43.374Z,57.31
2023-08-08T10:58:38.028Z,58.01
2023-08-08T10:59:38.016Z,57.94
2023-08-08T11:00:38.024Z,57.61
2023-08-08T11:01:38.027Z,57.51
2023-08-08T11:02:39.019Z,58.69
2023-08-08T11:03:38.020Z,58.18
2023-08-08T11:04:38.005Z,57.59
2023-08-08T11:05:38.079Z,58.59
2023-08-08T11:06:37.990Z,57.18
2023-08-08T11:07:37.952Z,57.61
2023-08-08T11:08:37.948Z,57.31
2023-08-08T11:09:37.939Z,58.29
2023-08-08T11:10:38.194Z,57.48
2023-08-08T11:11:37.904Z,57.59
2023-08-08T11:12:37.909Z,57.48
2023-08-08T11:13:37.929Z,56.98
2023-08-08T11:14:37.891Z,56.96
2023-08-08T11:15:38.041Z,56.85
2023-08-08T11:16:37.861Z,57.66
2023-08-08T11:17:37.926Z,57.66
2023-08-08T11:18:37.864Z,57.86
2023-08-08T11:19:37.867Z,57.35
2023-08-08T11:20:37.833Z,56.78
2023-08-08T11:21:37.842Z,56.58
2023-08-08T11:22:37.801Z,57.39
2023-08-08T11:23:37.789Z,58.18
2023-08-08T11:24:37.813Z,57.11
2023-08-08T11:25:37.853Z,57.91
2023-08-08T11:26:37.805Z,58.64
2023-08-08T11:28:37.747Z,59.38
2023-08-08T11:29:37.811Z,60.18
2023-08-08T11:30:37.727Z,60.78
2023-08-08T11:31:37.750Z,60.31
2023-08-08T11:32:37.745Z,60.51
2023-08-08T11:33:37.713Z,60.41
2023-08-08T11:34:37.751Z,59.60
2023-08-08T11:35:37.694Z,60.28
2023-08-08T11:36:37.660Z,59.98
2023-08-08T11:37:37.655Z,60.35
2023-08-08T11:38:37.720Z,58.72
2023-08-08T11:39:37.627Z,58.72
2023-08-08T11:40:37.626Z,57.98
2023-08-08T11:41:37.626Z,58.72
2023-08-08T11:42:37.611Z,58.01
2023-08-08T11:43:37.629Z,58.11
2023-08-08T11:44:37.579Z,58.14
2023-08-08T11:45:37.582Z,59.47
2023-08-08T11:46:37.630Z,59.98
2023-08-08T11:47:37.584Z,60.11
2023-08-08T11:48:37.563Z,60.31
2023-08-08T11:49:37.534Z,60.31
2023-08-08T11:50:37.575Z,61.04
2023-08-08T11:51:37.578Z,61.44
2023-08-08T11:52:37.495Z,61.57
2023-08-08T11:53:37.520Z,62.38
2023-08-08T11:54:37.491Z,62.68
2023-08-08T11:55:38.501Z,62.21
2023-08-08T11:56:37.488Z,62.81
2023-08-08T11:57:37.464Z,62.78
2023-08-08T11:58:37.455Z,63.35
2023-08-08T11:59:37.438Z,64.29
2023-08-08T12:00:37.474Z,62.88
2023-08-08T12:01:37.445Z,62.24
2023-08-08T12:02:37.428Z,61.94
2023-08-08T12:03:37.426Z,62.68
2023-08-08T12:04:37.404Z,62.98
2023-08-08T12:05:37.374Z,62.58
2023-08-08T12:06:37.404Z,62.88
2023-08-08T12:07:37.370Z,63.08
2023-08-08T12:08:37.347Z,63.08
2023-08-08T12:09:37.370Z,64.52
2023-08-08T12:10:37.336Z,65.62
2023-08-08T12:11:37.350Z,67.97
2023-08-08T12:12:39.661Z,69.42
2023-08-08T12:13:38.305Z,70.56
2023-08-08T12:14:41.421Z,71.47
2023-08-08T12:15:39.275Z,71.47
2023-08-08T12:16:37.300Z,73.01
2023-08-08T12:17:37.334Z,73.38
2023-08-08T12:18:37.244Z,73.55
2023-08-08T12:19:37.231Z,75.76
2023-08-08T12:20:37.228Z,75.26
2023-08-08T12:21:37.217Z,72.44
2023-08-08T12:22:37.239Z,73.35
2023-08-08T12:23:37.200Z,73.95
2023-08-08T12:24:37.235Z,75.36
2023-08-08T12:25:37.179Z,75.63
2023-08-08T12:26:37.172Z,72.61
2023-08-08T12:27:38.183Z,73.72
2023-08-08T12:28:37.155Z,74.46
2023-08-08T12:29:37.136Z,72.94
2023-08-08T12:30:37.313Z,74.76
2023-08-08T12:31:38.143Z,73.95
2023-08-08T12:32:37.215Z,72.85
2023-08-08T12:33:37.097Z,72.98
2023-08-08T12:34:37.108Z,72.88
2023-08-08T12:35:37.079Z,73.79
2023-08-08T12:36:37.060Z,73.48
2023-08-08T12:37:37.082Z,74.32
2023-08-08T12:38:37.040Z,74.43
2023-08-08T12:39:37.090Z,74.52
2023-08-08T12:40:37.039Z,75.13
2023-08-08T12:41:37.014Z,76.75
2023-08-08T12:42:37.053Z,77.25
2023-08-08T12:43:37.055Z,75.03
2023-08-08T12:44:36.984Z,74.29
2023-08-08T12:45:36.970Z,74.22
2023-08-08T12:46:37.142Z,75.03
2023-08-08T12:47:36.985Z,74.02
2023-08-08T12:48:37.015Z,76.10
2023-08-08T12:49:36.959Z,75.80
2023-08-08T12:50:36.934Z,74.96
2023-08-08T12:51:36.924Z,75.46
2023-08-08T12:52:36.927Z,75.67
2023-08-08T12:53:36.932Z,75.33